createdAt,value
2022-08-03T00:01:25.998Z,20.12
2022-08-03T00:03:53.014Z,20.14
2022-08-03T00:06:19.797Z,20.17
2022-08-03T00:08:47.391Z,20.16
2022-08-03T00:11:14.251Z,20.12
2022-08-03T00:13:41.088Z,20.20
2022-08-03T00:16:08.102Z,20.14
2022-08-03T00:18:34.981Z,20.10
2022-08-03T00:21:03.266Z,20.03
2022-08-03T00:23:50.896Z,20.11
2022-08-03T00:26:17.101Z,20.00
2022-08-03T00:28:43.935Z,19.95
2022-08-03T00:31:13.580Z,19.92
2022-08-03T00:33:59.751Z,19.90
2022-08-03T00:36:28.353Z,19.89
2022-08-03T00:38:56.497Z,19.88
2022-08-03T00:41:23.400Z,19.88
2022-08-03T00:43:50.848Z,19.92
2022-08-03T00:46:21.773Z,19.90
2022-08-03T00:48:50.283Z,19.85
2022-08-03T00:51:18.164Z,19.76
2022-08-03T00:53:46.108Z,19.80
2022-08-03T00:56:15.123Z,19.74
2022-08-03T00:58:44.291Z,19.74
2022-08-03T01:01:12.571Z,19.77
2022-08-03T01:03:39.867Z,19.78
2022-08-03T01:06:19.249Z,19.76
2022-08-03T01:09:06.806Z,19.65
2022-08-03T01:12:03.142Z,19.73
2022-08-03T01:14:38.713Z,19.67
2022-08-03T01:17:13.686Z,19.61
2022-08-03T01:19:41.039Z,19.68
2022-08-03T01:22:18.225Z,19.66
2022-08-03T01:25:14.132Z,19.70
2022-08-03T01:28:30.143Z,19.63
2022-08-03T01:31:02.615Z,19.59
2022-08-03T01:33:39.492Z,19.55
2022-08-03T01:36:14.288Z,19.58
2022-08-03T01:38:47.644Z,19.58
2022-08-03T01:41:20.423Z,19.58
2022-08-03T01:44:26.406Z,19.54
2022-08-03T01:46:40.582Z,19.54
2022-08-03T01:49:18.385Z,19.48
2022-08-03T01:52:03.057Z,19.45
2022-08-03T01:54:43.364Z,19.40
2022-08-03T01:57:11.929Z,19.34
2022-08-03T01:59:42.450Z,19.31
2022-08-03T02:02:15.623Z,19.27
2022-08-03T02:05:01.766Z,19.24
2022-08-03T02:07:30.845Z,19.22
2022-08-03T02:10:00.700Z,19.19
2022-08-03T02:12:31.581Z,19.19
2022-08-03T02:15:00.947Z,19.06
2022-08-03T02:17:40.113Z,19.08
2022-08-03T02:20:13.027Z,19.02
2022-08-03T02:22:42.588Z,18.95
2022-08-03T02:25:12.018Z,18.92
2022-08-03T02:28:15.707Z,18.92
2022-08-03T02:30:51.883Z,18.86
2022-08-03T02:33:33.312Z,18.84
2022-08-03T02:36:02.974Z,18.82
2022-08-03T02:38:38.207Z,18.82
2022-08-03T02:41:13.822Z,18.75
2022-08-03T02:44:06.639Z,18.70
2022-08-03T02:46:38.825Z,18.66
2022-08-03T02:49:50.776Z,18.60
2022-08-03T02:51:58.397Z,18.58
2022-08-03T02:54:28.596Z,18.50
2022-08-03T02:56:59.271Z,18.48
2022-08-03T02:59:31.429Z,18.42
2022-08-03T03:02:01.835Z,18.41
2022-08-03T03:04:32.987Z,18.36
2022-08-03T03:07:04.454Z,18.37
2022-08-03T03:09:41.658Z,18.36
2022-08-03T03:12:13.584Z,18.37
2022-08-03T03:14:41.029Z,18.36
2022-08-03T03:17:12.353Z,18.36
2022-08-03T03:19:40.937Z,18.29
2022-08-03T03:22:08.653Z,18.29
2022-08-03T03:24:36.453Z,18.28
2022-08-03T03:27:04.072Z,18.25
2022-08-03T03:29:32.750Z,18.21
2022-08-03T03:32:09.263Z,18.27
2022-08-03T03:34:37.441Z,18.23
2022-08-03T03:37:05.244Z,18.18
2022-08-03T03:39:32.404Z,18.15
2022-08-03T03:42:00.978Z,18.04
2022-08-03T03:44:31.140Z,18.09
2022-08-03T03:46:58.790Z,18.07
2022-08-03T03:49:27.104Z,17.97
2022-08-03T03:51:55.245Z,18.07
2022-08-03T03:54:22.637Z,18.01
2022-08-03T03:56:52.470Z,18.05
2022-08-03T03:59:19.394Z,18.14
2022-08-03T04:01:46.480Z,18.17
2022-08-03T04:04:31.991Z,18.17
2022-08-03T04:07:17.687Z,18.14
2022-08-03T04:10:14.212Z,18.14
2022-08-03T04:12:50.487Z,18.22
2022-08-03T04:15:23.003Z,18.29
2022-08-03T04:17:53.516Z,18.39
2022-08-03T04:20:22.982Z,18.41
2022-08-03T04:22:52.975Z,18.44
2022-08-03T04:25:23.162Z,18.48
2022-08-03T04:28:08.076Z,18.55
2022-08-03T04:30:47.529Z,18.62
2022-08-03T04:33:16.372Z,18.72
2022-08-03T04:36:01.322Z,18.78
2022-08-03T04:38:32.972Z,18.84
2022-08-03T04:41:01.572Z,18.93
2022-08-03T04:43:32.826Z,19.01
2022-08-03T04:46:00.290Z,19.10
2022-08-03T04:48:28.375Z,19.21
2022-08-03T04:50:55.417Z,19.30
2022-08-03T04:53:22.633Z,19.41
2022-08-03T04:55:50.243Z,19.49
2022-08-03T04:58:17.599Z,19.57
2022-08-03T05:00:45.703Z,19.65
2022-08-03T05:03:23.612Z,19.76
2022-08-03T05:06:02.004Z,19.87
2022-08-03T05:08:46.053Z,19.99
2022-08-03T05:11:17.315Z,20.10
2022-08-03T05:13:45.244Z,20.21
2022-08-03T05:16:13.943Z,20.28
2022-08-03T05:18:42.130Z,20.40
2022-08-03T05:21:16.946Z,20.51
2022-08-03T05:23:45.065Z,20.61
2022-08-03T05:26:12.176Z,20.71
2022-08-03T05:28:39.976Z,20.76
2022-08-03T05:31:18.234Z,20.84
2022-08-03T05:33:45.128Z,20.95
2022-08-03T05:36:12.697Z,21.01
2022-08-03T05:38:39.743Z,21.08
2022-08-03T05:41:22.169Z,21.18
2022-08-03T05:43:52.659Z,21.30
2022-08-03T05:46:20.697Z,21.40
2022-08-03T05:48:48.128Z,21.51
2022-08-03T05:51:15.016Z,21.59
2022-08-03T05:53:43.372Z,21.70
2022-08-03T05:56:15.036Z,21.74
2022-08-03T05:58:47.468Z,21.85
2022-08-03T06:01:18.380Z,21.93
2022-08-03T06:03:46.370Z,21.99
2022-08-03T06:06:13.284Z,22.07
2022-08-03T06:08:41.277Z,22.17
2022-08-03T06:11:09.090Z,22.28
2022-08-03T06:13:36.638Z,22.36
2022-08-03T06:16:03.912Z,22.46
2022-08-03T06:18:31.036Z,22.57
2022-08-03T06:20:58.118Z,22.67
2022-08-03T06:23:54.517Z,22.75
2022-08-03T06:26:27.569Z,22.87
2022-08-03T06:28:54.978Z,23.01
2022-08-03T06:31:32.872Z,23.05
2022-08-03T06:34:34.145Z,23.20
2022-08-03T06:36:52.905Z,23.41
2022-08-03T06:39:23.539Z,23.62
2022-08-03T06:41:51.123Z,23.86
2022-08-03T06:44:18.008Z,24.02
2022-08-03T06:46:44.950Z,24.13
2022-08-03T06:49:11.932Z,24.19
2022-08-03T06:52:37.461Z,24.19
2022-08-03T06:54:25.762Z,24.29
2022-08-03T06:56:52.698Z,24.40
2022-08-03T07:00:10.184Z,24.48
2022-08-03T07:02:07.538Z,24.55
2022-08-03T07:04:34.392Z,24.61
2022-08-03T07:07:01.725Z,24.61
2022-08-03T07:09:28.846Z,24.76
2022-08-03T07:11:55.819Z,24.78
2022-08-03T07:14:23.002Z,24.80
2022-08-03T07:16:49.867Z,24.80
2022-08-03T07:19:17.406Z,24.88
2022-08-03T07:21:45.480Z,24.78
2022-08-03T07:24:12.315Z,24.79
2022-08-03T07:26:39.265Z,24.78
2022-08-03T07:29:10.911Z,24.86
2022-08-03T07:31:42.309Z,24.93
2022-08-03T07:34:09.359Z,25.01
2022-08-03T07:36:36.234Z,25.14
2022-08-03T07:39:15.998Z,25.28
2022-08-03T07:41:46.046Z,25.43
2022-08-03T07:44:13.345Z,25.50
2022-08-03T07:46:40.225Z,25.49
2022-08-03T07:49:07.286Z,25.56
2022-08-03T07:51:34.448Z,25.48
2022-08-03T07:54:01.558Z,25.45
2022-08-03T07:56:29.096Z,25.43
2022-08-03T07:58:56.660Z,25.52
2022-08-03T08:01:23.799Z,25.70
2022-08-03T08:03:53.522Z,25.92
2022-08-03T08:06:21.705Z,26.14
2022-08-03T08:08:48.801Z,26.12
2022-08-03T08:11:15.851Z,26.27
2022-08-03T08:13:42.695Z,26.18
2022-08-03T08:16:09.632Z,26.10
2022-08-03T08:18:36.478Z,26.01
2022-08-03T08:21:03.531Z,26.18
2022-08-03T08:23:42.479Z,26.50
2022-08-03T08:26:11.353Z,26.36
2022-08-03T08:28:38.528Z,26.84
2022-08-03T08:31:05.516Z,26.86
2022-08-03T08:34:02.798Z,27.19
2022-08-03T08:36:21.810Z,27.47
2022-08-03T08:38:48.700Z,27.72
2022-08-03T08:41:16.262Z,28.25
2022-08-03T08:43:43.528Z,28.56
2022-08-03T08:46:23.496Z,29.01
2022-08-03T08:48:51.877Z,29.27
2022-08-03T08:51:20.732Z,29.16
2022-08-03T08:53:53.839Z,29.89
2022-08-03T08:56:25.473Z,30.01
2022-08-03T08:58:56.976Z,29.88
2022-08-03T09:01:23.881Z,29.94
2022-08-03T09:03:51.417Z,30.19
2022-08-03T09:06:18.373Z,30.17
2022-08-03T09:08:45.209Z,30.71
2022-08-03T09:11:12.806Z,31.40
2022-08-03T09:13:39.991Z,32.03
2022-08-03T09:16:21.738Z,31.74
2022-08-03T09:18:52.200Z,32.44
2022-08-03T09:21:32.238Z,33.00
2022-08-03T09:24:03.220Z,33.35
2022-08-03T09:26:31.799Z,33.62
2022-08-03T09:29:10.871Z,33.44
2022-08-03T09:31:46.024Z,33.17
2022-08-03T09:34:17.452Z,34.20
2022-08-03T09:36:50.563Z,34.51
2022-08-03T09:39:19.520Z,35.18
2022-08-03T09:42:07.977Z,35.81
2022-08-03T09:44:45.056Z,35.58
2022-08-03T09:47:14.514Z,35.17
2022-08-03T09:49:56.123Z,35.51
2022-08-03T09:52:38.179Z,35.72
2022-08-03T09:56:30.500Z,35.52
2022-08-03T09:58:07.201Z,35.82
2022-08-03T10:00:54.192Z,35.98
2022-08-03T10:03:21.722Z,36.10
2022-08-03T10:05:48.605Z,36.61
2022-08-03T10:08:17.288Z,36.18
2022-08-03T10:10:46.162Z,37.01
2022-08-03T10:13:20.139Z,36.89
2022-08-03T10:16:21.712Z,37.19
2022-08-03T10:18:34.321Z,37.89
2022-08-03T10:21:07.825Z,37.31
2022-08-03T10:23:35.966Z,37.54
2022-08-03T10:26:04.894Z,37.60
2022-08-03T10:28:42.805Z,37.08
2022-08-03T10:31:13.149Z,37.60
2022-08-03T10:33:50.277Z,36.65
2022-08-03T10:36:23.948Z,37.28
2022-08-03T10:38:53.691Z,37.86
2022-08-03T10:41:23.395Z,37.69
2022-08-03T10:44:04.150Z,37.65
2022-08-03T10:46:31.823Z,36.90
2022-08-03T10:48:59.921Z,38.02
2022-08-03T10:51:32.078Z,37.96
2022-08-03T10:54:01.782Z,38.24
2022-08-03T10:56:50.837Z,38.80
2022-08-03T10:59:46.114Z,39.11
2022-08-03T11:02:14.392Z,39.18
2022-08-03T11:04:42.849Z,38.49
2022-08-03T11:07:25.744Z,37.97
2022-08-03T11:09:55.871Z,38.33
2022-08-03T11:12:32.158Z,37.52
2022-08-03T11:15:06.663Z,36.80
2022-08-03T11:17:46.647Z,37.58
2022-08-03T11:20:47.339Z,37.88
2022-08-03T11:23:15.778Z,39.20
2022-08-03T11:26:17.488Z,38.51
2022-08-03T11:28:46.538Z,38.44
2022-08-03T11:31:47.223Z,38.65
2022-08-03T11:34:11.223Z,39.83
2022-08-03T11:37:16.054Z,40.99
2022-08-03T11:39:46.744Z,42.07
2022-08-03T11:42:22.907Z,42.28
2022-08-03T11:45:00.331Z,41.55
2022-08-03T11:47:30.061Z,42.11
2022-08-03T11:50:00.689Z,41.18
2022-08-03T11:52:33.971Z,40.49
2022-08-03T11:55:01.286Z,40.37
2022-08-03T11:59:10.876Z,40.85
2022-08-03T12:00:28.634Z,40.49
2022-08-03T12:03:06.860Z,41.00
2022-08-03T12:05:48.083Z,41.22
2022-08-03T12:08:31.188Z,41.65
2022-08-03T12:11:01.287Z,40.86
2022-08-03T12:14:44.122Z,41.17
2022-08-03T12:16:25.817Z,41.66
2022-08-03T12:19:04.916Z,40.31
2022-08-03T12:21:31.859Z,41.11
2022-08-03T12:24:04.056Z,40.86
2022-08-03T12:26:43.214Z,41.84
2022-08-03T12:29:21.072Z,39.89
2022-08-03T12:31:49.883Z,41.71
2022-08-03T12:34:16.903Z,42.62
2022-08-03T12:36:57.012Z,42.23
2022-08-03T12:39:26.411Z,42.35
2022-08-03T12:41:54.906Z,40.47
2022-08-03T12:44:35.211Z,41.54
2022-08-03T12:47:03.647Z,41.40
2022-08-03T12:49:48.367Z,41.37
2022-08-03T12:52:16.255Z,40.41
2022-08-03T12:54:53.904Z,41.14
2022-08-03T12:57:21.197Z,40.85
2022-08-03T12:59:55.977Z,41.81
2022-08-03T13:02:25.431Z,42.21
2022-08-03T13:04:53.988Z,41.92
2022-08-03T13:07:22.195Z,41.86
2022-08-03T13:09:56.073Z,41.93
2022-08-03T13:12:25.653Z,42.97
2022-08-03T13:14:55.680Z,43.18
2022-08-03T13:17:22.869Z,43.16
2022-08-03T13:19:50.992Z,41.78
2022-08-03T13:22:20.096Z,41.59
2022-08-03T13:24:49.035Z,42.45
2022-08-03T13:28:09.862Z,42.79
2022-08-03T13:30:07.858Z,41.57
2022-08-03T13:32:35.084Z,40.22
2022-08-03T13:35:04.927Z,41.39
2022-08-03T13:37:32.490Z,41.88
2022-08-03T13:40:02.689Z,41.87
2022-08-03T13:42:32.359Z,41.86
2022-08-03T13:45:00.597Z,42.28
2022-08-03T13:47:27.902Z,41.63
2022-08-03T13:50:01.133Z,42.02
2022-08-03T13:52:34.258Z,41.83
2022-08-03T13:55:02.385Z,41.59
2022-08-03T13:58:02.507Z,41.36
2022-08-03T14:00:27.614Z,42.08
2022-08-03T14:03:02.920Z,42.62
2022-08-03T14:05:33.001Z,42.88
2022-08-03T14:08:05.822Z,42.79
2022-08-03T14:10:37.326Z,42.23
2022-08-03T14:13:05.198Z,42.24
2022-08-03T14:15:32.240Z,42.87
2022-08-03T14:18:04.293Z,42.94
2022-08-03T14:20:37.303Z,42.17
2022-08-03T14:23:07.058Z,41.63
2022-08-03T14:25:44.180Z,42.03
2022-08-03T14:28:24.991Z,42.96
2022-08-03T14:30:53.855Z,41.87
2022-08-03T14:33:21.002Z,42.21
2022-08-03T14:35:49.099Z,42.30
2022-08-03T14:38:16.479Z,41.63
2022-08-03T14:40:43.854Z,40.93
2022-08-03T14:43:11.117Z,40.77
2022-08-03T14:45:39.346Z,42.09
2022-08-03T14:50:30.973Z,41.72
2022-08-03T14:50:55.213Z,41.68
2022-08-03T14:53:22.520Z,41.72
2022-08-03T14:55:51.589Z,41.94
2022-08-03T14:58:21.508Z,41.11
2022-08-03T15:00:50.029Z,41.80
2022-08-03T15:03:20.564Z,41.95
2022-08-03T15:05:47.741Z,41.69
2022-08-03T15:08:14.708Z,41.74
2022-08-03T15:10:44.807Z,41.77
2022-08-03T15:13:17.686Z,41.89
2022-08-03T15:15:44.663Z,41.56
2022-08-03T15:18:11.598Z,41.40
2022-08-03T15:20:45.035Z,41.56
2022-08-03T15:23:14.202Z,41.50
2022-08-03T15:26:28.086Z,41.11
2022-08-03T15:28:27.959Z,39.89
2022-08-03T15:30:54.892Z,40.81
2022-08-03T15:33:21.911Z,40.99
2022-08-03T15:35:49.881Z,41.00
2022-08-03T15:38:16.944Z,41.01
2022-08-03T15:40:44.051Z,40.04
2022-08-03T15:43:11.087Z,39.93
2022-08-03T15:45:38.071Z,38.33
2022-08-03T15:48:06.064Z,38.87
2022-08-03T15:50:33.052Z,37.94
2022-08-03T15:52:59.907Z,37.16
2022-08-03T15:55:27.311Z,36.44
2022-08-03T15:59:10.876Z,36.09
2022-08-03T16:00:42.683Z,35.70
2022-08-03T16:03:10.618Z,35.35
2022-08-03T16:05:37.576Z,35.03
2022-08-03T16:08:07.126Z,35.06
2022-08-03T16:10:37.371Z,34.96
2022-08-03T16:13:04.270Z,34.75
2022-08-03T16:15:31.121Z,34.98
2022-08-03T16:17:58.122Z,35.01
2022-08-03T16:20:30.827Z,35.00
2022-08-03T16:23:04.144Z,34.33
2022-08-03T16:25:41.935Z,34.15
2022-08-03T16:28:13.932Z,34.11
2022-08-03T16:30:42.994Z,33.81
2022-08-03T16:33:11.276Z,34.01
2022-08-03T16:35:44.372Z,33.81
2022-08-03T16:38:14.192Z,33.75
2022-08-03T16:40:45.874Z,33.78
2022-08-03T16:43:18.178Z,33.63
2022-08-03T16:45:46.868Z,33.96
2022-08-03T16:48:15.147Z,34.01
2022-08-03T16:50:42.313Z,34.03
2022-08-03T16:53:15.715Z,34.55
2022-08-03T16:55:53.463Z,34.60
2022-08-03T16:58:41.161Z,34.42
2022-08-03T17:01:24.120Z,33.98
2022-08-03T17:04:02.726Z,33.75
2022-08-03T17:06:37.172Z,33.28
2022-08-03T17:09:10.065Z,33.06
2022-08-03T17:11:46.514Z,32.79
2022-08-03T17:14:28.563Z,32.62
2022-08-03T17:17:01.072Z,32.48
2022-08-03T17:19:32.565Z,32.40
2022-08-03T17:22:10.627Z,32.22
2022-08-03T17:24:41.395Z,32.24
2022-08-03T17:28:41.728Z,32.17
2022-08-03T17:30:10.402Z,32.12
2022-08-03T17:32:42.271Z,31.99
2022-08-03T17:35:10.613Z,31.92
2022-08-03T17:37:57.947Z,31.84
2022-08-03T17:40:24.735Z,31.74
2022-08-03T17:42:52.670Z,31.72
2022-08-03T17:45:20.346Z,31.69
2022-08-03T17:47:57.077Z,31.61
2022-08-03T17:50:37.081Z,31.36
2022-08-03T17:53:15.103Z,31.15
2022-08-03T17:55:52.053Z,31.04
2022-08-03T17:58:55.039Z,30.84
2022-08-03T18:02:26.519Z,30.66
2022-08-03T18:05:15.955Z,30.43
2022-08-03T18:07:59.532Z,30.25
2022-08-03T18:10:35.095Z,30.09
2022-08-03T18:13:11.240Z,29.92
2022-08-03T18:15:43.740Z,29.73
2022-08-03T18:18:14.635Z,29.61
2022-08-03T18:20:45.463Z,29.41
2022-08-03T18:23:25.318Z,29.33
2022-08-03T18:26:02.583Z,29.05
2022-08-03T18:28:32.307Z,28.98
2022-08-03T18:31:05.570Z,28.90
2022-08-03T18:34:19.088Z,28.81
2022-08-03T18:36:30.179Z,28.74
2022-08-03T18:39:02.350Z,28.63
2022-08-03T18:41:32.961Z,28.58
2022-08-03T18:44:07.923Z,28.42
2022-08-03T18:46:50.095Z,28.38
2022-08-03T18:49:39.978Z,28.24
2022-08-03T18:52:17.762Z,28.17
2022-08-03T18:55:20.243Z,28.09
2022-08-03T18:58:17.795Z,27.99
2022-08-03T19:01:59.738Z,27.82
2022-08-03T19:04:34.062Z,27.72
2022-08-03T19:07:11.061Z,27.39
2022-08-03T19:09:54.845Z,27.36
2022-08-03T19:12:37.406Z,27.21
2022-08-03T19:15:13.270Z,27.18
2022-08-03T19:17:50.087Z,27.18
2022-08-03T19:20:28.219Z,27.15
2022-08-03T19:22:56.956Z,27.12
2022-08-03T19:25:34.413Z,27.10
2022-08-03T19:28:06.109Z,27.09
2022-08-03T19:30:46.433Z,26.90
2022-08-03T19:33:21.316Z,26.95
2022-08-03T19:35:55.090Z,26.92
2022-08-03T19:38:38.463Z,26.88
2022-08-03T19:41:14.403Z,26.74
2022-08-03T19:43:57.549Z,26.57
2022-08-03T19:46:30.314Z,26.52
2022-08-03T19:49:10.579Z,26.43
2022-08-03T19:52:00.807Z,26.39
2022-08-03T19:54:53.579Z,26.40
2022-08-03T19:57:25.407Z,26.34
2022-08-03T19:59:54.901Z,26.22
2022-08-03T20:02:27.229Z,26.21
2022-08-03T20:04:57.403Z,26.24
2022-08-03T20:07:26.228Z,26.19
2022-08-03T20:09:57.065Z,26.10
2022-08-03T20:12:29.017Z,26.04
2022-08-03T20:14:58.158Z,26.02
2022-08-03T20:17:56.289Z,25.92
2022-08-03T20:20:25.812Z,25.80
2022-08-03T20:22:57.618Z,25.67
2022-08-03T20:25:48.855Z,25.67
2022-08-03T20:28:35.102Z,25.56
2022-08-03T20:31:17.693Z,25.52
2022-08-03T20:33:48.802Z,25.45
2022-08-03T20:36:18.430Z,25.37
2022-08-03T20:38:48.167Z,25.27
2022-08-03T20:41:19.089Z,25.07
2022-08-03T20:43:49.299Z,25.00
2022-08-03T20:46:30.006Z,24.82
2022-08-03T20:49:03.780Z,24.71
2022-08-03T20:51:53.317Z,24.69
2022-08-03T20:54:29.118Z,24.67
2022-08-03T20:56:58.270Z,24.60
2022-08-03T20:59:35.063Z,24.54
2022-08-03T21:02:19.768Z,24.52
2022-08-03T21:05:03.019Z,24.41
2022-08-03T21:08:04.021Z,24.35
2022-08-03T21:10:29.536Z,24.22
2022-08-03T21:13:22.687Z,24.16
2022-08-03T21:16:06.434Z,24.18
2022-08-03T21:18:50.269Z,24.09
2022-08-03T21:21:19.560Z,24.03
2022-08-03T21:23:51.293Z,23.94
2022-08-03T21:26:20.226Z,23.82
2022-08-03T21:28:52.090Z,23.86
2022-08-03T21:31:24.790Z,23.75
2022-08-03T21:33:58.145Z,23.71
2022-08-03T21:36:28.636Z,23.55
2022-08-03T21:38:58.016Z,23.54
2022-08-03T21:41:32.204Z,23.37
2022-08-03T21:44:01.003Z,23.37
2022-08-03T21:46:35.057Z,23.11
2022-08-03T21:50:04.785Z,23.03
2022-08-03T21:51:54.507Z,22.85
2022-08-03T21:54:23.935Z,22.79
2022-08-03T21:56:51.402Z,22.83
2022-08-03T21:59:20.259Z,22.69
2022-08-03T22:01:49.393Z,22.56
2022-08-03T22:04:53.600Z,22.50
2022-08-03T22:07:09.037Z,22.61
2022-08-03T22:09:36.880Z,22.67
2022-08-03T22:12:04.595Z,22.73
2022-08-03T22:14:34.627Z,22.75
2022-08-03T22:17:06.240Z,22.86
2022-08-03T22:19:33.675Z,22.82
2022-08-03T22:22:06.096Z,22.77
2022-08-03T22:24:36.550Z,22.69
2022-08-03T22:27:23.251Z,22.63
2022-08-03T22:29:52.805Z,22.55
2022-08-03T22:32:20.505Z,22.53
2022-08-03T22:34:49.761Z,22.30
2022-08-03T22:37:19.238Z,22.13
2022-08-03T22:39:46.978Z,22.21
2022-08-03T22:42:14.121Z,22.18
2022-08-03T22:44:40.965Z,22.27
2022-08-03T22:47:09.767Z,22.20
2022-08-03T22:49:37.882Z,22.27
2022-08-03T22:52:06.182Z,22.28
2022-08-03T22:54:34.066Z,22.18
2022-08-03T22:57:01.169Z,22.21
2022-08-03T22:59:38.855Z,22.04
2022-08-03T23:02:21.766Z,21.99
2022-08-03T23:04:56.640Z,21.91
2022-08-03T23:07:35.705Z,21.75
2022-08-03T23:10:09.635Z,21.74
2022-08-03T23:12:39.694Z,21.66
2022-08-03T23:15:10.060Z,21.75
2022-08-03T23:17:57.480Z,21.72
2022-08-03T23:20:26.979Z,21.67
2022-08-03T23:22:57.874Z,21.45
2022-08-03T23:25:25.302Z,21.40
2022-08-03T23:28:05.715Z,21.42
2022-08-03T23:30:37.404Z,21.41
2022-08-03T23:33:04.630Z,21.36
2022-08-03T23:36:18.787Z,21.40
2022-08-03T23:38:37.155Z,21.42
2022-08-03T23:41:05.177Z,21.26
2022-08-03T23:46:21.738Z,21.38
2022-08-03T23:48:48.738Z,21.25
2022-08-03T23:51:37.929Z,21.18
2022-08-03T23:54:28.792Z,21.11
2022-08-03T23:57:23.058Z,21.12
